sensor_id;sensor_type;location;lat;lon;timestamp;temperature;humidity
20446;DHT22;10382;49.140;9.234;2023-04-25T00:01:01;10.90;99.90
20446;DHT22;10382;49.140;9.234;2023-04-25T00:03:29;10.90;99.90
20446;DHT22;10382;49.140;9.234;2023-04-25T00:05:56;10.80;99.90
20446;DHT22;10382;49.140;9.234;2023-04-25T00:08:24;10.80;99.90
20446;DHT22;10382;49.140;9.234;2023-04-25T00:10:52;10.80;99.90
20446;DHT22;10382;49.140;9.234;2023-04-25T00:13:19;10.80;99.90
20446;DHT22;10382;49.140;9.234;2023-04-25T00:15:47;10.90;99.90
20446;DHT22;10382;49.140;9.234;2023-04-25T00:18:14;10.80;99.90
20446;DHT22;10382;49.140;9.234;2023-04-25T00:20:40;10.80;99.90
20446;DHT22;10382;49.140;9.234;2023-04-25T00:23:11;10.80;99.90
20446;DHT22;10382;49.140;9.234;2023-04-25T00:25:43;10.80;99.90
20446;DHT22;10382;49.140;9.234;2023-04-25T00:28:11;10.70;99.90
20446;DHT22;10382;49.140;9.234;2023-04-25T00:30:38;10.70;99.90
20446;DHT22;10382;49.140;9.234;2023-04-25T00:33:05;10.70;99.90
20446;DHT22;10382;49.140;9.234;2023-04-25T00:35:32;10.60;99.90
20446;DHT22;10382;49.140;9.234;2023-04-25T00:37:59;10.60;99.90
20446;DHT22;10382;49.140;9.234;2023-04-25T00:40:26;10.50;99.90
20446;DHT22;10382;49.140;9.234;2023-04-25T00:42:53;10.50;99.90
20446;DHT22;10382;49.140;9.234;2023-04-25T00:45:22;10.50;99.90
20446;DHT22;10382;49.140;9.234;2023-04-25T00:47:54;10.60;99.90
20446;DHT22;10382;49.140;9.234;2023-04-25T00:50:21;10.60;99.90
20446;DHT22;10382;49.140;9.234;2023-04-25T00:52:48;10.60;99.90
20446;DHT22;10382;49.140;9.234;2023-04-25T00:55:15;10.50;99.90
20446;DHT22;10382;49.140;9.234;2023-04-25T00:57:43;10.50;99.90
20446;DHT22;10382;49.140;9.234;2023-04-25T01:00:10;10.50;99.90
20446;DHT22;10382;49.140;9.234;2023-04-25T01:02:40;10.40;99.90
20446;DHT22;10382;49.140;9.234;2023-04-25T01:05:08;10.40;99.90
20446;DHT22;10382;49.140;9.234;2023-04-25T01:07:35;10.30;99.90
20446;DHT22;10382;49.140;9.234;2023-04-25T01:10:03;10.30;99.90
20446;DHT22;10382;49.140;9.234;2023-04-25T01:12:31;10.40;99.90
20446;DHT22;10382;49.140;9.234;2023-04-25T01:14:58;10.40;99.90
20446;DHT22;10382;49.140;9.234;2023-04-25T01:17:25;10.40;99.90
20446;DHT22;10382;49.140;9.234;2023-04-25T01:19:54;10.50;99.90
20446;DHT22;10382;49.140;9.234;2023-04-25T01:22:22;10.50;99.90
20446;DHT22;10382;49.140;9.234;2023-04-25T01:24:49;10.60;99.90
20446;DHT22;10382;49.140;9.234;2023-04-25T01:27:16;10.60;99.90
20446;DHT22;10382;49.140;9.234;2023-04-25T01:29:44;10.60;99.90
20446;DHT22;10382;49.140;9.234;2023-04-25T01:32:11;10.50;99.90
20446;DHT22;10382;49.140;9.234;2023-04-25T01:34:38;10.50;99.90
20446;DHT22;10382;49.140;9.234;2023-04-25T01:37:05;10.40;99.90
20446;DHT22;10382;49.140;9.234;2023-04-25T01:39:33;10.30;99.90
20446;DHT22;10382;49.140;9.234;2023-04-25T01:42:00;10.30;99.90
20446;DHT22;10382;49.140;9.234;2023-04-25T01:44:27;10.20;99.90
20446;DHT22;10382;49.140;9.234;2023-04-25T01:46:54;10.20;99.90
20446;DHT22;10382;49.140;9.234;2023-04-25T01:49:21;10.10;99.90
20446;DHT22;10382;49.140;9.234;2023-04-25T01:51:49;10.10;99.90
20446;DHT22;10382;49.140;9.234;2023-04-25T01:54:16;10.10;99.90
20446;DHT22;10382;49.140;9.234;2023-04-25T01:56:50;10.00;99.90
20446;DHT22;10382;49.140;9.234;2023-04-25T01:59:18;10.10;99.90
20446;DHT22;10382;49.140;9.234;2023-04-25T02:01:47;10.10;99.90
20446;DHT22;10382;49.140;9.234;2023-04-25T02:04:14;10.10;99.90
20446;DHT22;10382;49.140;9.234;2023-04-25T02:06:41;10.20;99.90
20446;DHT22;10382;49.140;9.234;2023-04-25T02:09:07;10.20;99.90
20446;DHT22;10382;49.140;9.234;2023-04-25T02:11:34;10.20;99.90
20446;DHT22;10382;49.140;9.234;2023-04-25T02:14:02;10.10;99.90
20446;DHT22;10382;49.140;9.234;2023-04-25T02:16:29;10.10;99.90
20446;DHT22;10382;49.140;9.234;2023-04-25T02:18:57;10.10;99.90
20446;DHT22;10382;49.140;9.234;2023-04-25T02:21:24;10.20;99.90
20446;DHT22;10382;49.140;9.234;2023-04-25T02:23:52;10.20;99.90
20446;DHT22;10382;49.140;9.234;2023-04-25T02:26:19;10.20;99.90
20446;DHT22;10382;49.140;9.234;2023-04-25T02:28:46;10.20;99.90
20446;DHT22;10382;49.140;9.234;2023-04-25T02:31:14;10.30;99.90
20446;DHT22;10382;49.140;9.234;2023-04-25T02:33:41;10.30;99.90
20446;DHT22;10382;49.140;9.234;2023-04-25T02:36:08;10.30;99.90
20446;DHT22;10382;49.140;9.234;2023-04-25T02:38:35;10.30;99.90
20446;DHT22;10382;49.140;9.234;2023-04-25T02:41:02;10.30;99.90
20446;DHT22;10382;49.140;9.234;2023-04-25T02:43:29;10.30;99.90
20446;DHT22;10382;49.140;9.234;2023-04-25T02:45:56;10.30;99.90
20446;DHT22;10382;49.140;9.234;2023-04-25T02:48:24;10.30;99.90
20446;DHT22;10382;49.140;9.234;2023-04-25T02:50:51;10.30;99.90
20446;DHT22;10382;49.140;9.234;2023-04-25T02:53:17;10.30;99.90
20446;DHT22;10382;49.140;9.234;2023-04-25T02:55:44;10.20;99.90
20446;DHT22;10382;49.140;9.234;2023-04-25T02:58:11;10.20;99.90
20446;DHT22;10382;49.140;9.234;2023-04-25T03:00:38;10.30;99.90
20446;DHT22;10382;49.140;9.234;2023-04-25T03:03:05;10.30;99.90
20446;DHT22;10382;49.140;9.234;2023-04-25T03:05:33;10.30;99.90
20446;DHT22;10382;49.140;9.234;2023-04-25T03:08:00;10.20;99.90
20446;DHT22;10382;49.140;9.234;2023-04-25T03:10:26;10.20;99.90
20446;DHT22;10382;49.140;9.234;2023-04-25T03:12:53;10.10;99.90
20446;DHT22;10382;49.140;9.234;2023-04-25T03:15:20;10.20;99.90
20446;DHT22;10382;49.140;9.234;2023-04-25T03:17:47;10.20;99.90
20446;DHT22;10382;49.140;9.234;2023-04-25T03:20:14;10.20;99.90
20446;DHT22;10382;49.140;9.234;2023-04-25T03:22:43;10.30;99.90
20446;DHT22;10382;49.140;9.234;2023-04-25T03:25:10;10.30;99.90
20446;DHT22;10382;49.140;9.234;2023-04-25T03:27:37;10.20;99.90
20446;DHT22;10382;49.140;9.234;2023-04-25T03:30:05;10.30;99.90
20446;DHT22;10382;49.140;9.234;2023-04-25T03:32:33;10.30;99.90
20446;DHT22;10382;49.140;9.234;2023-04-25T03:35:00;10.30;99.90
20446;DHT22;10382;49.140;9.234;2023-04-25T03:37:27;10.30;99.90
20446;DHT22;10382;49.140;9.234;2023-04-25T03:39:56;10.30;99.90
20446;DHT22;10382;49.140;9.234;2023-04-25T03:42:23;10.30;99.90
20446;DHT22;10382;49.140;9.234;2023-04-25T03:44:51;10.30;99.90
20446;DHT22;10382;49.140;9.234;2023-04-25T03:47:19;10.20;99.90
20446;DHT22;10382;49.140;9.234;2023-04-25T03:49:46;10.30;99.90
20446;DHT22;10382;49.140;9.234;2023-04-25T03:52:15;10.30;99.90
20446;DHT22;10382;49.140;9.234;2023-04-25T03:54:42;10.30;99.90
20446;DHT22;10382;49.140;9.234;2023-04-25T03:57:12;10.20;99.90
20446;DHT22;10382;49.140;9.234;2023-04-25T03:59:39;10.20;99.90
20446;DHT22;10382;49.140;9.234;2023-04-25T04:02:06;10.20;99.90
20446;DHT22;10382;49.140;9.234;2023-04-25T04:04:33;10.20;99.90
20446;DHT22;10382;49.140;9.234;2023-04-25T04:07:01;10.20;99.90
20446;DHT22;10382;49.140;9.234;2023-04-25T04:09:28;10.30;99.90
20446;DHT22;10382;49.140;9.234;2023-04-25T04:11:55;10.30;99.90
20446;DHT22;10382;49.140;9.234;2023-04-25T04:14:23;10.30;99.90
20446;DHT22;10382;49.140;9.234;2023-04-25T04:16:51;10.40;99.90
20446;DHT22;10382;49.140;9.234;2023-04-25T04:19:18;10.40;99.90
20446;DHT22;10382;49.140;9.234;2023-04-25T04:21:45;10.30;99.90
20446;DHT22;10382;49.140;9.234;2023-04-25T04:24:12;10.30;99.90
20446;DHT22;10382;49.140;9.234;2023-04-25T04:26:39;10.20;99.90
20446;DHT22;10382;49.140;9.234;2023-04-25T04:29:07;10.10;99.90
20446;DHT22;10382;49.140;9.234;2023-04-25T04:31:37;10.00;99.90
20446;DHT22;10382;49.140;9.234;2023-04-25T04:34:05;10.00;99.90
20446;DHT22;10382;49.140;9.234;2023-04-25T04:36:32;10.00;99.90
20446;DHT22;10382;49.140;9.234;2023-04-25T04:39:00;9.90;99.90
20446;DHT22;10382;49.140;9.234;2023-04-25T04:41:28;9.90;99.90
20446;DHT22;10382;49.140;9.234;2023-04-25T04:43:55;9.90;99.90
20446;DHT22;10382;49.140;9.234;2023-04-25T04:46:22;10.00;99.90
20446;DHT22;10382;49.140;9.234;2023-04-25T04:48:51;10.10;99.90
20446;DHT22;10382;49.140;9.234;2023-04-25T04:51:19;10.10;99.90
20446;DHT22;10382;49.140;9.234;2023-04-25T04:53:46;10.10;99.90
20446;DHT22;10382;49.140;9.234;2023-04-25T04:56:13;10.10;99.90
20446;DHT22;10382;49.140;9.234;2023-04-25T04:58:40;10.10;99.90
20446;DHT22;10382;49.140;9.234;2023-04-25T05:01:06;10.20;99.90
20446;DHT22;10382;49.140;9.234;2023-04-25T05:03:33;10.30;99.90
20446;DHT22;10382;49.140;9.234;2023-04-25T05:06:02;10.30;99.90
20446;DHT22;10382;49.140;9.234;2023-04-25T05:08:29;10.30;99.90
20446;DHT22;10382;49.140;9.234;2023-04-25T05:10:56;10.30;99.90
20446;DHT22;10382;49.140;9.234;2023-04-25T05:13:23;10.30;99.90
20446;DHT22;10382;49.140;9.234;2023-04-25T05:15:51;10.30;99.90
20446;DHT22;10382;49.140;9.234;2023-04-25T05:18:18;10.30;99.90
20446;DHT22;10382;49.140;9.234;2023-04-25T05:20:45;10.30;99.90
20446;DHT22;10382;49.140;9.234;2023-04-25T05:23:13;10.20;99.90
20446;DHT22;10382;49.140;9.234;2023-04-25T05:25:41;10.10;99.90
20446;DHT22;10382;49.140;9.234;2023-04-25T05:28:08;10.10;99.90
20446;DHT22;10382;49.140;9.234;2023-04-25T05:30:36;10.00;99.90
20446;DHT22;10382;49.140;9.234;2023-04-25T05:33:03;10.00;99.90
20446;DHT22;10382;49.140;9.234;2023-04-25T05:35:29;10.00;99.90
20446;DHT22;10382;49.140;9.234;2023-04-25T05:37:57;10.00;99.90
20446;DHT22;10382;49.140;9.234;2023-04-25T05:40:25;9.90;99.90
20446;DHT22;10382;49.140;9.234;2023-04-25T05:42:52;9.80;99.90
20446;DHT22;10382;49.140;9.234;2023-04-25T05:45:19;9.90;99.90
20446;DHT22;10382;49.140;9.234;2023-04-25T05:47:46;9.90;99.90
20446;DHT22;10382;49.140;9.234;2023-04-25T05:50:13;9.90;99.90
20446;DHT22;10382;49.140;9.234;2023-04-25T05:52:40;10.00;99.90
20446;DHT22;10382;49.140;9.234;2023-04-25T05:55:08;10.00;99.90
20446;DHT22;10382;49.140;9.234;2023-04-25T05:57:37;9.90;99.90
20446;DHT22;10382;49.140;9.234;2023-04-25T06:00:08;9.90;99.90
20446;DHT22;10382;49.140;9.234;2023-04-25T06:02:35;9.90;99.90
20446;DHT22;10382;49.140;9.234;2023-04-25T06:05:03;10.10;99.90
20446;DHT22;10382;49.140;9.234;2023-04-25T06:07:32;10.30;99.90
20446;DHT22;10382;49.140;9.234;2023-04-25T06:10:00;10.40;99.90
20446;DHT22;10382;49.140;9.234;2023-04-25T06:12:27;10.50;99.90
20446;DHT22;10382;49.140;9.234;2023-04-25T06:14:55;10.60;99.90
20446;DHT22;10382;49.140;9.234;2023-04-25T06:17:22;10.80;99.90
20446;DHT22;10382;49.140;9.234;2023-04-25T06:19:49;10.90;99.90
20446;DHT22;10382;49.140;9.234;2023-04-25T06:22:15;10.90;99.90
20446;DHT22;10382;49.140;9.234;2023-04-25T06:24:42;11.00;99.90
20446;DHT22;10382;49.140;9.234;2023-04-25T06:27:09;11.00;99.90
20446;DHT22;10382;49.140;9.234;2023-04-25T06:29:36;11.10;99.90
20446;DHT22;10382;49.140;9.234;2023-04-25T06:32:05;11.10;99.90
20446;DHT22;10382;49.140;9.234;2023-04-25T06:34:31;11.20;99.90
20446;DHT22;10382;49.140;9.234;2023-04-25T06:36:58;11.30;99.90
20446;DHT22;10382;49.140;9.234;2023-04-25T06:39:25;11.30;99.90
20446;DHT22;10382;49.140;9.234;2023-04-25T06:41:52;11.40;99.90
20446;DHT22;10382;49.140;9.234;2023-04-25T06:44:19;11.60;99.90
20446;DHT22;10382;49.140;9.234;2023-04-25T06:46:46;11.70;99.90
20446;DHT22;10382;49.140;9.234;2023-04-25T06:49:14;11.80;99.90
20446;DHT22;10382;49.140;9.234;2023-04-25T06:51:41;11.80;99.90
20446;DHT22;10382;49.140;9.234;2023-04-25T06:54:08;11.90;99.90
20446;DHT22;10382;49.140;9.234;2023-04-25T06:56:35;11.90;99.90
20446;DHT22;10382;49.140;9.234;2023-04-25T06:59:02;12.00;99.90
20446;DHT22;10382;49.140;9.234;2023-04-25T07:01:28;12.10;99.90
20446;DHT22;10382;49.140;9.234;2023-04-25T07:03:55;12.10;99.90
20446;DHT22;10382;49.140;9.234;2023-04-25T07:06:24;12.20;99.90
20446;DHT22;10382;49.140;9.234;2023-04-25T07:08:52;12.20;99.90
20446;DHT22;10382;49.140;9.234;2023-04-25T07:11:19;12.30;99.90
20446;DHT22;10382;49.140;9.234;2023-04-25T07:13:46;12.50;99.90
20446;DHT22;10382;49.140;9.234;2023-04-25T07:16:12;12.60;99.90
20446;DHT22;10382;49.140;9.234;2023-04-25T07:18:39;12.70;99.90
20446;DHT22;10382;49.140;9.234;2023-04-25T07:21:06;12.80;99.90
20446;DHT22;10382;49.140;9.234;2023-04-25T07:23:34;12.80;99.90
20446;DHT22;10382;49.140;9.234;2023-04-25T07:26:02;13.00;99.90
20446;DHT22;10382;49.140;9.234;2023-04-25T07:28:29;13.00;99.90
20446;DHT22;10382;49.140;9.234;2023-04-25T07:30:56;13.00;99.90
20446;DHT22;10382;49.140;9.234;2023-04-25T07:33:23;13.10;99.90
20446;DHT22;10382;49.140;9.234;2023-04-25T07:35:50;13.10;99.90
20446;DHT22;10382;49.140;9.234;2023-04-25T07:38:17;13.10;99.90
20446;DHT22;10382;49.140;9.234;2023-04-25T07:40:46;13.10;99.90
20446;DHT22;10382;49.140;9.234;2023-04-25T07:43:13;13.10;99.90
20446;DHT22;10382;49.140;9.234;2023-04-25T07:45:42;13.20;99.90
20446;DHT22;10382;49.140;9.234;2023-04-25T07:48:09;13.10;99.90
20446;DHT22;10382;49.140;9.234;2023-04-25T07:50:36;13.00;99.90
20446;DHT22;10382;49.140;9.234;2023-04-25T07:53:02;13.00;99.90
20446;DHT22;10382;49.140;9.234;2023-04-25T07:55:29;13.00;99.90
20446;DHT22;10382;49.140;9.234;2023-04-25T07:57:57;12.90;99.90
20446;DHT22;10382;49.140;9.234;2023-04-25T08:00:24;13.00;99.90
20446;DHT22;10382;49.140;9.234;2023-04-25T08:02:51;13.10;99.90
20446;DHT22;10382;49.140;9.234;2023-04-25T08:05:18;13.10;99.90
20446;DHT22;10382;49.140;9.234;2023-04-25T08:07:45;13.20;99.90
20446;DHT22;10382;49.140;9.234;2023-04-25T08:10:12;13.20;99.90
20446;DHT22;10382;49.140;9.234;2023-04-25T08:12:39;13.10;99.90
20446;DHT22;10382;49.140;9.234;2023-04-25T08:15:08;13.10;99.90
20446;DHT22;10382;49.140;9.234;2023-04-25T08:17:35;13.20;99.90
20446;DHT22;10382;49.140;9.234;2023-04-25T08:20:02;13.20;99.90
20446;DHT22;10382;49.140;9.234;2023-04-25T08:22:31;13.30;99.90
20446;DHT22;10382;49.140;9.234;2023-04-25T08:24:58;13.30;99.90
20446;DHT22;10382;49.140;9.234;2023-04-25T08:27:25;13.30;99.90
20446;DHT22;10382;49.140;9.234;2023-04-25T08:29:51;13.30;99.90
20446;DHT22;10382;49.140;9.234;2023-04-25T08:32:20;13.20;99.90
20446;DHT22;10382;49.140;9.234;2023-04-25T08:34:47;13.20;99.90
20446;DHT22;10382;49.140;9.234;2023-04-25T08:37:14;13.30;99.90
20446;DHT22;10382;49.140;9.234;2023-04-25T08:39:41;13.30;99.90
20446;DHT22;10382;49.140;9.234;2023-04-25T08:42:08;13.30;99.90
20446;DHT22;10382;49.140;9.234;2023-04-25T08:44:36;13.30;99.90
20446;DHT22;10382;49.140;9.234;2023-04-25T08:47:04;13.40;99.90
20446;DHT22;10382;49.140;9.234;2023-04-25T08:49:33;13.40;99.90
20446;DHT22;10382;49.140;9.234;2023-04-25T08:52:01;13.50;99.90
20446;DHT22;10382;49.140;9.234;2023-04-25T08:54:30;13.60;99.90
20446;DHT22;10382;49.140;9.234;2023-04-25T08:57:01;13.70;99.90
20446;DHT22;10382;49.140;9.234;2023-04-25T08:59:29;13.90;99.90
20446;DHT22;10382;49.140;9.234;2023-04-25T09:01:57;14.10;99.90
20446;DHT22;10382;49.140;9.234;2023-04-25T09:04:24;14.30;99.90
20446;DHT22;10382;49.140;9.234;2023-04-25T09:06:52;14.30;99.90
20446;DHT22;10382;49.140;9.234;2023-04-25T09:09:19;14.30;99.90
20446;DHT22;10382;49.140;9.234;2023-04-25T09:11:46;14.30;99.90
20446;DHT22;10382;49.140;9.234;2023-04-25T09:14:14;14.20;99.90
20446;DHT22;10382;49.140;9.234;2023-04-25T09:17:01;14.10;99.90
20446;DHT22;10382;49.140;9.234;2023-04-25T09:19:30;13.80;99.90
20446;DHT22;10382;49.140;9.234;2023-04-25T09:22:00;13.70;99.90
20446;DHT22;10382;49.140;9.234;2023-04-25T09:24:32;13.50;99.90
20446;DHT22;10382;49.140;9.234;2023-04-25T09:26:59;13.10;99.90
20446;DHT22;10382;49.140;9.234;2023-04-25T09:29:30;12.80;99.90
20446;DHT22;10382;49.140;9.234;2023-04-25T09:32:17;12.60;99.90
20446;DHT22;10382;49.140;9.234;2023-04-25T09:34:47;12.50;99.90
20446;DHT22;10382;49.140;9.234;2023-04-25T09:37:22;12.30;99.90
20446;DHT22;10382;49.140;9.234;2023-04-25T09:39:50;12.10;99.90
20446;DHT22;10382;49.140;9.234;2023-04-25T09:42:17;11.80;99.90
20446;DHT22;10382;49.140;9.234;2023-04-25T09:44:45;11.60;99.90
20446;DHT22;10382;49.140;9.234;2023-04-25T09:47:14;11.40;99.90
20446;DHT22;10382;49.140;9.234;2023-04-25T09:49:42;11.20;99.90
20446;DHT22;10382;49.140;9.234;2023-04-25T09:52:13;11.00;99.90
20446;DHT22;10382;49.140;9.234;2023-04-25T09:54:41;10.80;99.90
20446;DHT22;10382;49.140;9.234;2023-04-25T09:57:11;10.80;99.90
20446;DHT22;10382;49.140;9.234;2023-04-25T09:59:45;10.90;99.90
20446;DHT22;10382;49.140;9.234;2023-04-25T10:02:13;11.00;99.90
20446;DHT22;10382;49.140;9.234;2023-04-25T10:04:41;11.00;99.90
20446;DHT22;10382;49.140;9.234;2023-04-25T10:07:08;11.20;99.90
20446;DHT22;10382;49.140;9.234;2023-04-25T10:09:38;11.30;99.90
20446;DHT22;10382;49.140;9.234;2023-04-25T10:12:08;11.50;99.90
20446;DHT22;10382;49.140;9.234;2023-04-25T10:14:35;11.70;99.90
20446;DHT22;10382;49.140;9.234;2023-04-25T10:17:02;11.90;99.90
20446;DHT22;10382;49.140;9.234;2023-04-25T10:19:29;12.10;99.90
20446;DHT22;10382;49.140;9.234;2023-04-25T10:22:03;12.50;99.90
20446;DHT22;10382;49.140;9.234;2023-04-25T10:24:31;12.70;99.90
20446;DHT22;10382;49.140;9.234;2023-04-25T10:26:58;13.00;99.90
20446;DHT22;10382;49.140;9.234;2023-04-25T10:29:27;13.30;99.90
20446;DHT22;10382;49.140;9.234;2023-04-25T10:31:54;13.30;99.90
20446;DHT22;10382;49.140;9.234;2023-04-25T10:34:24;13.00;99.90
20446;DHT22;10382;49.140;9.234;2023-04-25T10:36:59;12.50;99.90
20446;DHT22;10382;49.140;9.234;2023-04-25T10:39:29;12.30;99.90
20446;DHT22;10382;49.140;9.234;2023-04-25T10:41:56;12.20;99.90
20446;DHT22;10382;49.140;9.234;2023-04-25T10:44:27;12.20;99.90
20446;DHT22;10382;49.140;9.234;2023-04-25T10:46:55;12.10;99.90
20446;DHT22;10382;49.140;9.234;2023-04-25T10:49:31;11.90;99.90
20446;DHT22;10382;49.140;9.234;2023-04-25T10:52:18;11.80;99.90
20446;DHT22;10382;49.140;9.234;2023-04-25T10:54:48;11.90;99.90
20446;DHT22;10382;49.140;9.234;2023-04-25T10:57:28;12.30;99.90
20446;DHT22;10382;49.140;9.234;2023-04-25T11:00:07;12.90;99.90
20446;DHT22;10382;49.140;9.234;2023-04-25T11:02:41;13.30;99.90
20446;DHT22;10382;49.140;9.234;2023-04-25T11:05:09;13.20;99.90
20446;DHT22;10382;49.140;9.234;2023-04-25T11:07:39;13.00;99.90
20446;DHT22;10382;49.140;9.234;2023-04-25T11:10:09;13.00;99.90
20446;DHT22;10382;49.140;9.234;2023-04-25T11:12:36;13.10;99.90
20446;DHT22;10382;49.140;9.234;2023-04-25T11:15:06;13.10;99.90
20446;DHT22;10382;49.140;9.234;2023-04-25T11:17:34;13.20;99.90
20446;DHT22;10382;49.140;9.234;2023-04-25T11:20:01;13.10;99.90
20446;DHT22;10382;49.140;9.234;2023-04-25T11:22:29;13.20;99.90
20446;DHT22;10382;49.140;9.234;2023-04-25T11:24:56;13.10;99.90
20446;DHT22;10382;49.140;9.234;2023-04-25T11:27:23;13.00;99.90
20446;DHT22;10382;49.140;9.234;2023-04-25T11:29:50;12.80;99.90
20446;DHT22;10382;49.140;9.234;2023-04-25T11:32:19;12.80;99.90
20446;DHT22;10382;49.140;9.234;2023-04-25T11:34:46;13.00;99.90
20446;DHT22;10382;49.140;9.234;2023-04-25T11:37:14;13.40;99.90
20446;DHT22;10382;49.140;9.234;2023-04-25T11:39:44;13.40;99.90
20446;DHT22;10382;49.140;9.234;2023-04-25T11:42:12;13.30;99.90
20446;DHT22;10382;49.140;9.234;2023-04-25T11:44:39;13.10;99.90
20446;DHT22;10382;49.140;9.234;2023-04-25T11:47:07;13.10;99.90
20446;DHT22;10382;49.140;9.234;2023-04-25T11:49:35;13.30;99.90
20446;DHT22;10382;49.140;9.234;2023-04-25T11:52:02;13.30;99.90
20446;DHT22;10382;49.140;9.234;2023-04-25T11:54:29;13.10;99.90
20446;DHT22;10382;49.140;9.234;2023-04-25T11:56:56;12.90;99.90
20446;DHT22;10382;49.140;9.234;2023-04-25T11:59:24;12.70;99.90
20446;DHT22;10382;49.140;9.234;2023-04-25T12:01:52;12.90;99.90
20446;DHT22;10382;49.140;9.234;2023-04-25T12:04:20;13.00;99.90
20446;DHT22;10382;49.140;9.234;2023-04-25T12:06:50;12.70;99.90
20446;DHT22;10382;49.140;9.234;2023-04-25T12:09:19;12.70;99.90
20446;DHT22;10382;49.140;9.234;2023-04-25T12:11:48;12.70;99.90
20446;DHT22;10382;49.140;9.234;2023-04-25T12:14:21;12.30;99.90
20446;DHT22;10382;49.140;9.234;2023-04-25T12:16:49;12.10;99.90
20446;DHT22;10382;49.140;9.234;2023-04-25T12:19:17;11.80;99.90
20446;DHT22;10382;49.140;9.234;2023-04-25T12:21:44;11.80;99.90
20446;DHT22;10382;49.140;9.234;2023-04-25T12:24:14;11.90;99.90
20446;DHT22;10382;49.140;9.234;2023-04-25T12:26:51;11.90;99.90
20446;DHT22;10382;49.140;9.234;2023-04-25T12:29:23;12.00;99.90
20446;DHT22;10382;49.140;9.234;2023-04-25T12:31:51;12.10;99.90
20446;DHT22;10382;49.140;9.234;2023-04-25T12:34:18;12.10;99.90
20446;DHT22;10382;49.140;9.234;2023-04-25T12:36:45;11.90;99.90
20446;DHT22;10382;49.140;9.234;2023-04-25T12:39:16;11.80;99.90
20446;DHT22;10382;49.140;9.234;2023-04-25T12:41:43;11.70;99.90
20446;DHT22;10382;49.140;9.234;2023-04-25T12:44:11;11.70;99.90
20446;DHT22;10382;49.140;9.234;2023-04-25T12:46:39;11.70;99.90
20446;DHT22;10382;49.140;9.234;2023-04-25T12:49:06;11.90;99.90
20446;DHT22;10382;49.140;9.234;2023-04-25T12:51:34;12.20;99.90
20446;DHT22;10382;49.140;9.234;2023-04-25T12:54:01;12.50;99.90
20446;DHT22;10382;49.140;9.234;2023-04-25T12:56:31;12.80;99.90
20446;DHT22;10382;49.140;9.234;2023-04-25T12:58:58;13.10;99.90
20446;DHT22;10382;49.140;9.234;2023-04-25T13:01:25;13.20;99.90
20446;DHT22;10382;49.140;9.234;2023-04-25T13:03:52;13.60;99.90
20446;DHT22;10382;49.140;9.234;2023-04-25T13:06:21;14.10;99.90
20446;DHT22;10382;49.140;9.234;2023-04-25T13:08:48;14.70;99.90
20446;DHT22;10382;49.140;9.234;2023-04-25T13:11:15;15.40;99.90
20446;DHT22;10382;49.140;9.234;2023-04-25T13:13:44;16.00;99.90
20446;DHT22;10382;49.140;9.234;2023-04-25T13:16:11;16.30;99.90
20446;DHT22;10382;49.140;9.234;2023-04-25T13:18:39;16.50;99.90
20446;DHT22;10382;49.140;9.234;2023-04-25T13:21:07;16.50;99.90
20446;DHT22;10382;49.140;9.234;2023-04-25T13:23:34;16.50;99.90
20446;DHT22;10382;49.140;9.234;2023-04-25T13:26:01;16.50;99.90
20446;DHT22;10382;49.140;9.234;2023-04-25T13:28:28;16.50;99.90
20446;DHT22;10382;49.140;9.234;2023-04-25T13:30:56;16.60;99.90
20446;DHT22;10382;49.140;9.234;2023-04-25T13:33:23;16.90;99.90
20446;DHT22;10382;49.140;9.234;2023-04-25T13:35:51;16.90;99.90
20446;DHT22;10382;49.140;9.234;2023-04-25T13:38:21;16.70;99.90
20446;DHT22;10382;49.140;9.234;2023-04-25T13:40:49;16.30;99.90
20446;DHT22;10382;49.140;9.234;2023-04-25T13:43:18;16.00;99.90
20446;DHT22;10382;49.140;9.234;2023-04-25T13:45:45;15.90;99.90
20446;DHT22;10382;49.140;9.234;2023-04-25T13:48:13;15.90;99.90
20446;DHT22;10382;49.140;9.234;2023-04-25T13:50:40;15.80;99.90
20446;DHT22;10382;49.140;9.234;2023-04-25T13:53:07;15.60;99.90
20446;DHT22;10382;49.140;9.234;2023-04-25T13:55:34;15.40;99.90
20446;DHT22;10382;49.140;9.234;2023-04-25T13:58:02;15.30;99.90
20446;DHT22;10382;49.140;9.234;2023-04-25T14:00:34;15.40;99.90
20446;DHT22;10382;49.140;9.234;2023-04-25T14:03:02;15.40;99.90
20446;DHT22;10382;49.140;9.234;2023-04-25T14:05:34;15.40;99.90
20446;DHT22;10382;49.140;9.234;2023-04-25T14:08:05;15.50;99.90
20446;DHT22;10382;49.140;9.234;2023-04-25T14:10:32;15.60;99.90
20446;DHT22;10382;49.140;9.234;2023-04-25T14:13:00;15.50;99.90
20446;DHT22;10382;49.140;9.234;2023-04-25T14:15:29;15.50;99.90
20446;DHT22;10382;49.140;9.234;2023-04-25T14:17:56;15.70;99.90
20446;DHT22;10382;49.140;9.234;2023-04-25T14:20:23;15.70;99.90
20446;DHT22;10382;49.140;9.234;2023-04-25T14:22:51;15.90;99.90
20446;DHT22;10382;49.140;9.234;2023-04-25T14:25:19;16.10;99.90
20446;DHT22;10382;49.140;9.234;2023-04-25T14:27:47;16.30;99.90
20446;DHT22;10382;49.140;9.234;2023-04-25T14:30:15;16.70;99.90
20446;DHT22;10382;49.140;9.234;2023-04-25T14:32:42;17.10;99.30
20446;DHT22;10382;49.140;9.234;2023-04-25T14:35:09;17.30;99.00
20446;DHT22;10382;49.140;9.234;2023-04-25T14:37:36;17.40;97.50
20446;DHT22;10382;49.140;9.234;2023-04-25T14:40:05;17.20;96.50
20446;DHT22;10382;49.140;9.234;2023-04-25T14:42:34;17.10;97.10
20446;DHT22;10382;49.140;9.234;2023-04-25T14:45:01;17.00;96.90
20446;DHT22;10382;49.140;9.234;2023-04-25T14:47:28;16.90;93.70
20446;DHT22;10382;49.140;9.234;2023-04-25T14:49:56;16.80;92.90
20446;DHT22;10382;49.140;9.234;2023-04-25T14:52:22;16.90;91.50
20446;DHT22;10382;49.140;9.234;2023-04-25T14:54:49;17.30;91.20
20446;DHT22;10382;49.140;9.234;2023-04-25T14:57:17;17.80;90.90
20446;DHT22;10382;49.140;9.234;2023-04-25T14:59:44;18.60;90.00
20446;DHT22;10382;49.140;9.234;2023-04-25T15:02:11;19.40;87.00
20446;DHT22;10382;49.140;9.234;2023-04-25T15:04:38;20.20;82.30
20446;DHT22;10382;49.140;9.234;2023-04-25T15:07:05;21.10;75.10
20446;DHT22;10382;49.140;9.234;2023-04-25T15:09:32;21.90;66.60
20446;DHT22;10382;49.140;9.234;2023-04-25T15:11:59;22.20;64.80
20446;DHT22;10382;49.140;9.234;2023-04-25T15:14:27;22.30;62.00
20446;DHT22;10382;49.140;9.234;2023-04-25T15:16:54;22.10;60.40
20446;DHT22;10382;49.140;9.234;2023-04-25T15:19:21;22.00;59.50
20446;DHT22;10382;49.140;9.234;2023-04-25T15:21:48;21.40;58.60
20446;DHT22;10382;49.140;9.234;2023-04-25T15:24:15;20.70;59.80
20446;DHT22;10382;49.140;9.234;2023-04-25T15:26:42;20.00;59.80
20446;DHT22;10382;49.140;9.234;2023-04-25T15:29:09;19.70;61.50
20446;DHT22;10382;49.140;9.234;2023-04-25T15:31:37;19.60;61.60
20446;DHT22;10382;49.140;9.234;2023-04-25T15:34:04;19.70;62.20
20446;DHT22;10382;49.140;9.234;2023-04-25T15:36:31;19.40;62.90